PWSweather.com
Personal Weather Stations
Station Observations
OBSERWACJEMETEO
Skórowo, SkorowoPL 76-230

SkórowoSkorowoPL 76-230

Lat: 54.5030556, Lon: 17.5277777

Elevation: 77

Station Type: WH2080

http://obserwacjemeteo.eu/

High Low Average
Temperature 73.6°F23.1°C 47.5°F8.6°C 58.3°F14.6°C
Dew Point 55.5°F13.1°C 41.6°F5.3°C 47.6°F8.7°C
Winds 3.1 mph 5.0 kmh Calm Calm 1.0 mph E1.6 kmh E
Wind Gusts 9.2 mph14.8 kmh -- 3.0 mph4.8 kmh
Humidity 93% 38% 70%
Pressure 30.20 in1022.7 mb 30.00 in1015.9 mb -
Precipitation 0.05 in1.3 mm - -
Hour Temp Dew Point Humidity Winds Wind Gusts Pressure Precip Precip Rate Daily Precip Total
12:00 AM 54.9°F12.7°C 49.5°F9.7°C 82% 1.6 mph E2.6 kmh E 3.1 mph5.0 kmh 30.00 in1015.9 mb 0.00 in0.0 mm 0.00 in0.0 mm 0.00 in0.0 mm
12:10 AM 54.3°F12.4°C 49.3°F9.6°C 83% 0.7 mph NNE1.1 kmh NNE 4.5 mph7.2 kmh 30.01 in1016.3 mb 0.00 in0.0 mm 0.00 in0.0 mm 0.00 in0.0 mm
12:20 AM 54.5°F12.5°C 48.8°F9.3°C 81% 0.7 mph NE1.1 kmh NE 2.2 mph3.5 kmh 30.02 in1016.6 mb 0.00 in0.0 mm 0.00 in0.0 mm 0.00 in0.0 mm
12:30 AM 54.5°F12.5°C 48.8°F9.3°C 81% 0.7 mph WSW1.1 kmh WSW 3.1 mph5.0 kmh 30.01 in1016.3 mb 0.00 in0.0 mm 0.00 in0.0 mm 0.00 in0.0 mm
12:40 AM 53.8°F12.1°C 49.1°F9.5°C 84% 0.7 mph NNW1.1 kmh NNW 1.6 mph2.6 kmh 30.02 in1016.6 mb 0.00 in0.0 mm 0.00 in0.0 mm 0.00 in0.0 mm
12:50 AM 53.4°F11.9°C 49.0°F9.4°C 85% 0.7 mph ESE1.1 kmh ESE 2.2 mph3.5 kmh 30.02 in1016.6 mb 0.00 in0.0 mm 0.00 in0.0 mm 0.00 in0.0 mm
01:00 AM 52.9°F11.6°C 48.8°F9.3°C 86% 0.7 mph ENE1.1 kmh ENE 2.2 mph3.5 kmh 30.02 in1016.6 mb 0.00 in0.0 mm 0.00 in0.0 mm 0.00 in0.0 mm
01:10 AM 52.5°F11.4°C 48.8°F9.3°C 87% 0.7 mph E1.1 kmh E 2.2 mph3.5 kmh 30.02 in1016.6 mb 0.00 in0.0 mm 0.00 in0.0 mm 0.00 in0.0 mm
01:20 AM 52.5°F11.4°C 49.4°F9.7°C 89% 0.7 mph SE1.1 kmh SE 1.6 mph2.6 kmh 30.03 in1016.9 mb 0.00 in0.0 mm 0.00 in0.0 mm 0.00 in0.0 mm
01:30 AM 53.1°F11.7°C 50.2°F10.1°C 90% 2.2 mph E3.5 kmh E 3.8 mph6.1 kmh 30.03 in1016.9 mb 0.00 in0.0 mm 0.00 in0.0 mm 0.00 in0.0 mm
01:40 AM 52.7°F11.5°C 49.9°F9.9°C 90% 0.7 mph ESE1.1 kmh ESE 3.8 mph6.1 kmh 30.04 in1017.3 mb 0.00 in0.0 mm 0.00 in0.0 mm 0.00 in0.0 mm
01:50 AM 52.2°F11.2°C 49.3°F9.6°C 90% 0.7 mph E1.1 kmh E 2.2 mph3.5 kmh 30.04 in1017.3 mb 0.00 in0.0 mm 0.00 in0.0 mm 0.00 in0.0 mm
02:00 AM 52.0°F11.1°C 49.1°F9.5°C 90% 0.7 mph E1.1 kmh E 3.1 mph5.0 kmh 30.04 in1017.3 mb 0.00 in0.0 mm 0.00 in0.0 mm 0.00 in0.0 mm
02:10 AM 52.0°F11.1°C 49.1°F9.5°C 90% 0.7 mph ESE1.1 kmh ESE 3.1 mph5.0 kmh 30.04 in1017.3 mb 0.00 in0.0 mm 0.00 in0.0 mm 0.00 in0.0 mm
02:20 AM 52.2°F11.2°C 49.3°F9.6°C 90% 1.6 mph SE2.6 kmh SE 3.8 mph6.1 kmh 30.04 in1017.3 mb 0.00 in0.0 mm 0.00 in0.0 mm 0.00 in0.0 mm
02:30 AM 52.2°F11.2°C 49.3°F9.6°C 90% 0.7 mph E1.1 kmh E 3.1 mph5.0 kmh 30.05 in1017.6 mb 0.00 in0.0 mm 0.00 in0.0 mm 0.00 in0.0 mm
02:40 AM 52.3°F11.3°C 49.5°F9.7°C 90% 1.6 mph SE2.6 kmh SE 2.2 mph3.5 kmh 30.05 in1017.6 mb 0.00 in0.0 mm 0.00 in0.0 mm 0.00 in0.0 mm
02:50 AM 52.3°F11.3°C 49.2°F9.6°C 89% 0.7 mph ESE1.1 kmh ESE 3.1 mph5.0 kmh 30.05 in1017.6 mb 0.00 in0.0 mm 0.00 in0.0 mm 0.00 in0.0 mm
03:00 AM 52.0°F11.1°C 48.5°F9.2°C 88% 0.7 mph ESE1.1 kmh ESE 2.2 mph3.5 kmh 30.05 in1017.6 mb 0.00 in0.0 mm 0.00 in0.0 mm 0.00 in0.0 mm
03:10 AM 51.6°F10.9°C 48.2°F9.0°C 88% 0.7 mph ESE1.1 kmh ESE 1.6 mph2.6 kmh 30.06 in1017.9 mb 0.00 in0.0 mm 0.00 in0.0 mm 0.00 in0.0 mm
03:20 AM 52.0°F11.1°C 48.8°F9.3°C 89% 1.6 mph ENE2.6 kmh ENE 3.1 mph5.0 kmh 30.06 in1017.9 mb 0.00 in0.0 mm 0.00 in0.0 mm 0.00 in0.0 mm
03:30 AM 51.8°F11.0°C 48.7°F9.3°C 89% Calm Calm 3.1 mph5.0 kmh 30.07 in1018.3 mb 0.00 in0.0 mm 0.00 in0.0 mm 0.00 in0.0 mm
03:40 AM 51.4°F10.8°C 48.0°F8.9°C 88% 0.7 mph E1.1 kmh E 3.1 mph5.0 kmh 30.07 in1018.3 mb 0.00 in0.0 mm 0.00 in0.0 mm 0.00 in0.0 mm
03:50 AM 50.9°F10.5°C 47.5°F8.6°C 88% 0.7 mph SE1.1 kmh SE 2.2 mph3.5 kmh 30.07 in1018.3 mb 0.00 in0.0 mm 0.00 in0.0 mm 0.00 in0.0 mm
04:00 AM 50.7°F10.4°C 47.6°F8.7°C 89% 0.7 mph SE1.1 kmh SE 2.2 mph3.5 kmh 30.07 in1018.3 mb 0.00 in0.0 mm 0.00 in0.0 mm 0.00 in0.0 mm
04:10 AM 50.2°F10.1°C 47.4°F8.6°C 90% 0.7 mph SE1.1 kmh SE 2.2 mph3.5 kmh 30.08 in1018.6 mb 0.00 in0.0 mm 0.00 in0.0 mm 0.00 in0.0 mm
04:20 AM 50.4°F10.2°C 47.5°F8.6°C 90% Calm Calm 3.1 mph5.0 kmh 30.08 in1018.6 mb 0.00 in0.0 mm 0.00 in0.0 mm 0.00 in0.0 mm
04:30 AM 50.7°F10.4°C 48.2°F9.0°C 91% 1.6 mph E2.6 kmh E 2.2 mph3.5 kmh 30.08 in1018.6 mb 0.00 in0.0 mm 0.00 in0.0 mm 0.00 in0.0 mm
04:40 AM 50.5°F10.3°C 48.0°F8.9°C 91% 0.7 mph E1.1 kmh E 3.1 mph5.0 kmh 30.09 in1019.0 mb 0.00 in0.0 mm 0.00 in0.0 mm 0.00 in0.0 mm
04:50 AM 50.4°F10.2°C 48.1°F8.9°C 92% 0.7 mph SE1.1 kmh SE 2.2 mph3.5 kmh 30.09 in1019.0 mb 0.00 in0.0 mm 0.00 in0.0 mm 0.00 in0.0 mm
05:00 AM 50.7°F10.4°C 48.5°F9.2°C 92% Calm Calm 3.1 mph5.0 kmh 30.09 in1019.0 mb 0.01 in0.3 mm 0.01 in0.3 mm 0.01 in0.3 mm
05:10 AM 51.1°F10.6°C 49.1°F9.5°C 93% Calm Calm 1.6 mph2.6 kmh 30.11 in1019.6 mb 0.02 in0.5 mm 0.06 in1.5 mm 0.02 in0.5 mm
05:20 AM 51.1°F10.6°C 49.1°F9.5°C 93% Calm Calm 1.6 mph2.6 kmh 30.10 in1019.3 mb 0.02 in0.5 mm 0.00 in0.0 mm 0.02 in0.5 mm
05:30 AM 51.3°F10.7°C 49.3°F9.6°C 93% 1.6 mph SE2.6 kmh SE 2.2 mph3.5 kmh 30.11 in1019.6 mb 0.04 in1.0 mm 0.12 in3.0 mm 0.04 in1.0 mm
05:40 AM 51.1°F10.6°C 49.1°F9.5°C 93% 0.7 mph SE1.1 kmh SE 2.2 mph3.5 kmh 30.11 in1019.6 mb 0.05 in1.3 mm 0.06 in1.5 mm 0.05 in1.3 mm
05:50 AM 50.5°F10.3°C 48.6°F9.2°C 93% 0.7 mph E1.1 kmh E 3.1 mph5.0 kmh 30.11 in1019.6 mb 0.05 in1.3 mm 0.00 in0.0 mm 0.05 in1.3 mm
06:00 AM 50.4°F10.2°C 48.4°F9.1°C 93% 0.7 mph SE1.1 kmh SE 1.6 mph2.6 kmh 30.11 in1019.6 mb 0.04 in1.0 mm 0.00 in0.0 mm 0.05 in1.3 mm
06:10 AM 50.2°F10.1°C 48.2°F9.0°C 93% Calm Calm 1.6 mph2.6 kmh 30.12 in1020.0 mb 0.02 in0.5 mm 0.00 in0.0 mm 0.05 in1.3 mm
06:20 AM 50.4°F10.2°C 48.4°F9.1°C 93% 1.6 mph NE2.6 kmh NE 2.2 mph3.5 kmh 30.12 in1020.0 mb 0.02 in0.5 mm 0.00 in0.0 mm 0.05 in1.3 mm
06:30 AM 50.9°F10.5°C 49.0°F9.4°C 93% Calm Calm 4.5 mph7.2 kmh 30.12 in1020.0 mb 0.01 in0.3 mm 0.00 in0.0 mm 0.05 in1.3 mm
06:40 AM 51.6°F10.9°C 49.7°F9.8°C 93% Calm Calm 2.2 mph3.5 kmh 30.12 in1020.0 mb 0.00 in0.0 mm 0.00 in0.0 mm 0.05 in1.3 mm
06:50 AM 52.5°F11.4°C 50.6°F10.3°C 93% Calm Calm 2.2 mph3.5 kmh 30.13 in1020.3 mb 0.00 in0.0 mm 0.00 in0.0 mm 0.05 in1.3 mm
07:00 AM 54.0°F12.2°C 51.7°F10.9°C 92% 0.7 mph NNE1.1 kmh NNE 2.2 mph3.5 kmh 30.12 in1020.0 mb 0.00 in0.0 mm 0.00 in0.0 mm 0.05 in1.3 mm
07:10 AM 57.0°F13.9°C 52.6°F11.4°C 85% 0.7 mph N1.1 kmh N 2.2 mph3.5 kmh 30.13 in1020.3 mb 0.00 in0.0 mm 0.00 in0.0 mm 0.05 in1.3 mm
07:20 AM 58.1°F14.5°C 51.6°F10.9°C 79% 0.7 mph ENE1.1 kmh ENE 3.1 mph5.0 kmh 30.13 in1020.3 mb 0.00 in0.0 mm 0.00 in0.0 mm 0.05 in1.3 mm
07:30 AM 59.7°F15.4°C 51.1°F10.6°C 73% 0.7 mph N1.1 kmh N 3.1 mph5.0 kmh 30.13 in1020.3 mb 0.00 in0.0 mm 0.00 in0.0 mm 0.05 in1.3 mm
07:40 AM 59.7°F15.4°C 51.1°F10.6°C 73% 2.2 mph NE3.5 kmh NE 3.1 mph5.0 kmh 30.14 in1020.7 mb 0.00 in0.0 mm 0.00 in0.0 mm 0.05 in1.3 mm
07:50 AM 59.7°F15.4°C 50.7°F10.4°C 72% 1.6 mph E2.6 kmh E 3.1 mph5.0 kmh 30.14 in1020.7 mb 0.00 in0.0 mm 0.00 in0.0 mm 0.05 in1.3 mm
08:00 AM 59.7°F15.4°C 50.7°F10.4°C 72% 2.2 mph E3.5 kmh E 3.1 mph5.0 kmh 30.14 in1020.7 mb 0.00 in0.0 mm 0.00 in0.0 mm 0.05 in1.3 mm
08:10 AM 61.9°F16.6°C 52.4°F11.3°C 71% 1.6 mph E2.6 kmh E 3.1 mph5.0 kmh 30.15 in1021.0 mb 0.00 in0.0 mm 0.00 in0.0 mm 0.05 in1.3 mm
08:20 AM 63.7°F17.6°C 51.3°F10.7°C 64% 1.6 mph NE2.6 kmh NE 4.5 mph7.2 kmh 30.16 in1021.3 mb 0.00 in0.0 mm 0.00 in0.0 mm 0.05 in1.3 mm
08:30 AM 64.9°F18.3°C 51.2°F10.7°C 61% 2.2 mph E3.5 kmh E 4.5 mph7.2 kmh 30.15 in1021.0 mb 0.00 in0.0 mm 0.00 in0.0 mm 0.05 in1.3 mm
08:40 AM 66.0°F18.9°C 51.8°F11.0°C 60% 1.6 mph NE2.6 kmh NE 3.1 mph5.0 kmh 30.16 in1021.3 mb 0.00 in0.0 mm 0.00 in0.0 mm 0.05 in1.3 mm
08:50 AM 66.6°F19.2°C 50.4°F10.2°C 56% 1.6 mph NE2.6 kmh NE 6.0 mph9.7 kmh 30.16 in1021.3 mb 0.00 in0.0 mm 0.00 in0.0 mm 0.05 in1.3 mm
09:00 AM 67.6°F19.8°C 50.9°F10.5°C 55% 2.2 mph ENE3.5 kmh ENE 3.8 mph6.1 kmh 30.17 in1021.7 mb 0.00 in0.0 mm 0.00 in0.0 mm 0.05 in1.3 mm
09:10 AM 66.6°F19.2°C 48.4°F9.1°C 52% 1.6 mph NE2.6 kmh NE 3.8 mph6.1 kmh 30.18 in1022.0 mb 0.00 in0.0 mm 0.00 in0.0 mm 0.05 in1.3 mm
09:20 AM 64.9°F18.3°C 48.9°F9.4°C 56% 0.7 mph ENE1.1 kmh ENE 5.4 mph8.7 kmh 30.18 in1022.0 mb 0.00 in0.0 mm 0.00 in0.0 mm 0.05 in1.3 mm
09:30 AM 66.7°F19.3°C 49.1°F9.5°C 53% 1.6 mph ESE2.6 kmh ESE 9.2 mph14.8 kmh 30.17 in1021.7 mb 0.00 in0.0 mm 0.00 in0.0 mm 0.05 in1.3 mm
09:40 AM 68.2°F20.1°C 49.4°F9.7°C 51% 3.1 mph ESE5.0 kmh ESE 4.5 mph7.2 kmh 30.18 in1022.0 mb 0.00 in0.0 mm 0.00 in0.0 mm 0.05 in1.3 mm
09:50 AM 69.6°F20.9°C 50.7°F10.4°C 51% 0.7 mph WSW1.1 kmh WSW 4.5 mph7.2 kmh 30.18 in1022.0 mb 0.00 in0.0 mm 0.00 in0.0 mm 0.05 in1.3 mm
10:00 AM 68.9°F20.5°C 52.1°F11.2°C 55% 0.7 mph SE1.1 kmh SE 3.1 mph5.0 kmh 30.18 in1022.0 mb 0.00 in0.0 mm 0.00 in0.0 mm 0.05 in1.3 mm
10:10 AM 65.5°F18.6°C 47.4°F8.6°C 52% 1.6 mph SW2.6 kmh SW 5.4 mph8.7 kmh 30.19 in1022.4 mb 0.00 in0.0 mm 0.00 in0.0 mm 0.05 in1.3 mm
10:20 AM 63.9°F17.7°C 47.4°F8.6°C 55% 3.1 mph WNW5.0 kmh WNW 6.0 mph9.7 kmh 30.19 in1022.4 mb 0.00 in0.0 mm 0.00 in0.0 mm 0.05 in1.3 mm
10:30 AM 63.9°F17.7°C 50.6°F10.3°C 62% 0.7 mph ENE1.1 kmh ENE 4.5 mph7.2 kmh 30.18 in1022.0 mb 0.00 in0.0 mm 0.00 in0.0 mm 0.05 in1.3 mm
10:40 AM 68.0°F20.0°C 51.7°F10.9°C 56% 1.6 mph NW2.6 kmh NW 5.4 mph8.7 kmh 30.19 in1022.4 mb 0.00 in0.0 mm 0.00 in0.0 mm 0.05 in1.3 mm
10:50 AM 71.2°F21.8°C 55.3°F12.9°C 57% 2.2 mph ENE3.5 kmh ENE 6.9 mph11.1 kmh 30.19 in1022.4 mb 0.00 in0.0 mm 0.00 in0.0 mm 0.05 in1.3 mm
11:00 AM 69.8°F21.0°C 53.4°F11.9°C 56% 2.2 mph ENE3.5 kmh ENE 4.5 mph7.2 kmh 30.19 in1022.4 mb 0.00 in0.0 mm 0.00 in0.0 mm 0.05 in1.3 mm
11:10 AM 66.7°F19.3°C 52.0°F11.1°C 59% 1.6 mph NW2.6 kmh NW 4.5 mph7.2 kmh 30.20 in1022.7 mb 0.00 in0.0 mm 0.00 in0.0 mm 0.05 in1.3 mm
11:20 AM 70.0°F21.1°C 55.5°F13.1°C 60% 0.7 mph E1.1 kmh E 3.8 mph6.1 kmh 30.20 in1022.7 mb 0.00 in0.0 mm 0.00 in0.0 mm 0.05 in1.3 mm
11:30 AM 67.3°F19.6°C 48.6°F9.2°C 51% 3.1 mph NNE5.0 kmh NNE 6.9 mph11.1 kmh 30.20 in1022.7 mb 0.00 in0.0 mm 0.00 in0.0 mm 0.05 in1.3 mm
11:40 AM 64.8°F18.2°C 50.6°F10.3°C 60% 1.6 mph ESE2.6 kmh ESE 6.9 mph11.1 kmh 30.20 in1022.7 mb 0.00 in0.0 mm 0.00 in0.0 mm 0.05 in1.3 mm
11:50 AM 64.4°F18.0°C 51.1°F10.6°C 62% 2.2 mph ESE3.5 kmh ESE 4.5 mph7.2 kmh 30.20 in1022.7 mb 0.00 in0.0 mm 0.00 in0.0 mm 0.05 in1.3 mm
12:00 PM 64.0°F17.8°C 50.3°F10.2°C 61% 3.1 mph SE5.0 kmh SE 3.8 mph6.1 kmh 30.20 in1022.7 mb 0.00 in0.0 mm 0.00 in0.0 mm 0.05 in1.3 mm
12:10 PM 67.1°F19.5°C 52.8°F11.6°C 60% 0.7 mph NNE1.1 kmh NNE 3.8 mph6.1 kmh 30.20 in1022.7 mb 0.00 in0.0 mm 0.00 in0.0 mm 0.05 in1.3 mm
12:20 PM 70.9°F21.6°C 52.9°F11.6°C 53% 0.7 mph SE1.1 kmh SE 3.8 mph6.1 kmh 30.19 in1022.4 mb 0.00 in0.0 mm 0.00 in0.0 mm 0.05 in1.3 mm
12:30 PM 72.7°F22.6°C 53.5°F11.9°C 51% 2.2 mph E3.5 kmh E 5.4 mph8.7 kmh 30.19 in1022.4 mb 0.00 in0.0 mm 0.00 in0.0 mm 0.05 in1.3 mm
12:40 PM 71.6°F22.0°C 52.5°F11.4°C 51% 2.2 mph SE3.5 kmh SE 6.0 mph9.7 kmh 30.18 in1022.0 mb 0.00 in0.0 mm 0.00 in0.0 mm 0.05 in1.3 mm
12:50 PM 71.4°F21.9°C 52.9°F11.6°C 52% 2.2 mph E3.5 kmh E 5.4 mph8.7 kmh 30.18 in1022.0 mb 0.00 in0.0 mm 0.00 in0.0 mm 0.05 in1.3 mm
01:00 PM 69.1°F20.6°C 48.6°F9.2°C 48% 3.1 mph WNW5.0 kmh WNW 6.0 mph9.7 kmh 30.19 in1022.4 mb 0.00 in0.0 mm 0.00 in0.0 mm 0.05 in1.3 mm
01:10 PM 71.6°F22.0°C 50.3°F10.2°C 47% 1.6 mph SW2.6 kmh SW 4.5 mph7.2 kmh 30.18 in1022.0 mb 0.00 in0.0 mm 0.00 in0.0 mm 0.05 in1.3 mm
01:20 PM 68.5°F20.3°C 49.2°F9.6°C 50% 1.6 mph WSW2.6 kmh WSW 4.5 mph7.2 kmh 30.18 in1022.0 mb 0.00 in0.0 mm 0.00 in0.0 mm 0.05 in1.3 mm
01:30 PM 71.8°F22.1°C 52.2°F11.2°C 50% 1.6 mph ESE2.6 kmh ESE 4.5 mph7.2 kmh 30.18 in1022.0 mb 0.00 in0.0 mm 0.00 in0.0 mm 0.05 in1.3 mm
01:40 PM 73.6°F23.1°C 50.4°F10.2°C 44% 0.7 mph SE1.1 kmh SE 4.5 mph7.2 kmh 30.18 in1022.0 mb 0.00 in0.0 mm 0.00 in0.0 mm 0.05 in1.3 mm
01:50 PM 73.4°F23.0°C 47.6°F8.7°C 40% 1.6 mph NW2.6 kmh NW 5.4 mph8.7 kmh 30.18 in1022.0 mb 0.00 in0.0 mm 0.00 in0.0 mm 0.05 in1.3 mm
02:00 PM 73.2°F22.9°C 47.5°F8.6°C 40% 1.6 mph NE2.6 kmh NE 3.1 mph5.0 kmh 30.18 in1022.0 mb 0.00 in0.0 mm 0.00 in0.0 mm 0.05 in1.3 mm
02:10 PM 71.4°F21.9°C 48.4°F9.1°C 44% 0.7 mph SW1.1 kmh SW 3.8 mph6.1 kmh 30.17 in1021.7 mb 0.00 in0.0 mm 0.00 in0.0 mm 0.05 in1.3 mm
02:20 PM 72.7°F22.6°C 45.6°F7.6°C 38% 1.6 mph SW2.6 kmh SW 6.0 mph9.7 kmh 30.17 in1021.7 mb 0.00 in0.0 mm 0.00 in0.0 mm 0.05 in1.3 mm
02:30 PM 71.8°F22.1°C 47.5°F8.6°C 42% 2.2 mph N3.5 kmh N 5.4 mph8.7 kmh 30.18 in1022.0 mb 0.00 in0.0 mm 0.00 in0.0 mm 0.05 in1.3 mm
02:40 PM 70.0°F21.1°C 48.3°F9.1°C 46% 1.6 mph SSE2.6 kmh SSE 4.5 mph7.2 kmh 30.18 in1022.0 mb 0.00 in0.0 mm 0.00 in0.0 mm 0.05 in1.3 mm
02:50 PM 68.7°F20.4°C 45.9°F7.7°C 44% 0.7 mph NW1.1 kmh NW 4.5 mph7.2 kmh 30.18 in1022.0 mb 0.00 in0.0 mm 0.00 in0.0 mm 0.05 in1.3 mm
03:00 PM 70.7°F21.5°C 46.5°F8.1°C 42% 3.1 mph ENE5.0 kmh ENE 4.5 mph7.2 kmh 30.18 in1022.0 mb 0.00 in0.0 mm 0.00 in0.0 mm 0.05 in1.3 mm
03:10 PM 70.3°F21.3°C 46.8°F8.2°C 43% 1.6 mph E2.6 kmh E 4.5 mph7.2 kmh 30.18 in1022.0 mb 0.00 in0.0 mm 0.00 in0.0 mm 0.05 in1.3 mm
03:20 PM 69.6°F20.9°C 49.1°F9.5°C 48% 0.7 mph N1.1 kmh N 3.8 mph6.1 kmh 30.18 in1022.0 mb 0.00 in0.0 mm 0.00 in0.0 mm 0.05 in1.3 mm
03:30 PM 71.1°F21.7°C 47.5°F8.6°C 43% 1.6 mph ENE2.6 kmh ENE 3.1 mph5.0 kmh 30.17 in1021.7 mb 0.00 in0.0 mm 0.00 in0.0 mm 0.05 in1.3 mm
03:40 PM 68.0°F20.0°C 43.4°F6.3°C 41% 1.6 mph W2.6 kmh W 3.1 mph5.0 kmh 30.17 in1021.7 mb 0.00 in0.0 mm 0.00 in0.0 mm 0.05 in1.3 mm
03:50 PM 65.5°F18.6°C 42.4°F5.8°C 43% 1.6 mph NW2.6 kmh NW 4.5 mph7.2 kmh 30.17 in1021.7 mb 0.00 in0.0 mm 0.00 in0.0 mm 0.05 in1.3 mm
04:00 PM 64.4°F18.0°C 43.7°F6.5°C 47% 0.7 mph WSW1.1 kmh WSW 3.1 mph5.0 kmh 30.17 in1021.7 mb 0.00 in0.0 mm 0.00 in0.0 mm 0.05 in1.3 mm
04:10 PM 65.1°F18.4°C 46.0°F7.8°C 50% 1.6 mph SSE2.6 kmh SSE 3.8 mph6.1 kmh 30.17 in1021.7 mb 0.00 in0.0 mm 0.00 in0.0 mm 0.05 in1.3 mm
04:20 PM 64.6°F18.1°C 45.5°F7.5°C 50% 1.6 mph NE2.6 kmh NE 3.8 mph6.1 kmh 30.16 in1021.3 mb 0.00 in0.0 mm 0.00 in0.0 mm 0.05 in1.3 mm
04:30 PM 64.2°F17.9°C 45.7°F7.6°C 51% 0.7 mph ENE1.1 kmh ENE 3.1 mph5.0 kmh 30.16 in1021.3 mb 0.00 in0.0 mm 0.00 in0.0 mm 0.05 in1.3 mm
04:40 PM 64.2°F17.9°C 43.0°F6.1°C 46% 0.7 mph SW1.1 kmh SW 3.1 mph5.0 kmh 30.17 in1021.7 mb 0.00 in0.0 mm 0.00 in0.0 mm 0.05 in1.3 mm
04:50 PM 63.3°F17.4°C 45.9°F7.7°C 53% 0.7 mph N1.1 kmh N 3.1 mph5.0 kmh 30.17 in1021.7 mb 0.00 in0.0 mm 0.00 in0.0 mm 0.05 in1.3 mm
05:00 PM 62.4°F16.9°C 46.1°F7.8°C 55% 0.7 mph NW1.1 kmh NW 2.2 mph3.5 kmh 30.16 in1021.3 mb 0.00 in0.0 mm 0.00 in0.0 mm 0.05 in1.3 mm
05:10 PM 61.7°F16.5°C 45.4°F7.4°C 55% Calm Calm 1.6 mph2.6 kmh 30.17 in1021.7 mb 0.00 in0.0 mm 0.00 in0.0 mm 0.05 in1.3 mm
05:20 PM 61.2°F16.2°C 46.3°F7.9°C 58% Calm Calm 1.6 mph2.6 kmh 30.17 in1021.7 mb 0.00 in0.0 mm 0.00 in0.0 mm 0.05 in1.3 mm
05:30 PM 60.3°F15.7°C 45.4°F7.4°C 58% 0.7 mph S1.1 kmh S 1.6 mph2.6 kmh 30.17 in1021.7 mb 0.00 in0.0 mm 0.00 in0.0 mm 0.05 in1.3 mm
05:40 PM 59.9°F15.5°C 46.0°F7.8°C 60% Calm Calm 1.6 mph2.6 kmh 30.16 in1021.3 mb 0.00 in0.0 mm 0.00 in0.0 mm 0.05 in1.3 mm
05:50 PM 59.0°F15.0°C 45.1°F7.3°C 60% Calm Calm -- 30.16 in1021.3 mb 0.00 in0.0 mm 0.00 in0.0 mm 0.05 in1.3 mm
06:00 PM 58.5°F14.7°C 45.1°F7.3°C 61% Calm Calm -- 30.16 in1021.3 mb 0.00 in0.0 mm 0.00 in0.0 mm 0.05 in1.3 mm
06:10 PM 58.3°F14.6°C 44.9°F7.2°C 61% Calm Calm 1.6 mph2.6 kmh 30.16 in1021.3 mb 0.00 in0.0 mm 0.00 in0.0 mm 0.05 in1.3 mm
06:20 PM 57.9°F14.4°C 45.0°F7.2°C 62% Calm Calm 1.6 mph2.6 kmh 30.16 in1021.3 mb 0.00 in0.0 mm 0.00 in0.0 mm 0.05 in1.3 mm
06:30 PM 57.2°F14.0°C 45.1°F7.3°C 64% Calm Calm 0.7 mph1.1 kmh 30.16 in1021.3 mb 0.00 in0.0 mm 0.00 in0.0 mm 0.05 in1.3 mm
06:40 PM 56.7°F13.7°C 45.0°F7.2°C 65% Calm Calm 0.7 mph1.1 kmh 30.17 in1021.7 mb 0.00 in0.0 mm 0.00 in0.0 mm 0.05 in1.3 mm
06:50 PM 55.2°F12.9°C 44.5°F6.9°C 67% Calm Calm 0.7 mph1.1 kmh 30.16 in1021.3 mb 0.00 in0.0 mm 0.00 in0.0 mm 0.05 in1.3 mm
07:00 PM 54.3°F12.4°C 45.1°F7.3°C 71% Calm Calm 0.7 mph1.1 kmh 30.17 in1021.7 mb 0.00 in0.0 mm 0.00 in0.0 mm 0.05 in1.3 mm
07:10 PM 53.4°F11.9°C 44.6°F7.0°C 72% Calm Calm -- 30.17 in1021.7 mb 0.00 in0.0 mm 0.00 in0.0 mm 0.05 in1.3 mm
07:20 PM 52.7°F11.5°C 43.9°F6.6°C 72% Calm Calm -- 30.17 in1021.7 mb 0.00 in0.0 mm 0.00 in0.0 mm 0.05 in1.3 mm
07:30 PM 52.3°F11.3°C 44.3°F6.8°C 74% Calm Calm 0.7 mph1.1 kmh 30.17 in1021.7 mb 0.00 in0.0 mm 0.00 in0.0 mm 0.05 in1.3 mm
07:40 PM 51.8°F11.0°C 43.8°F6.6°C 74% Calm Calm -- 30.17 in1021.7 mb 0.00 in0.0 mm 0.00 in0.0 mm 0.05 in1.3 mm
07:50 PM 51.6°F10.9°C 44.0°F6.7°C 75% Calm Calm -- 30.17 in1021.7 mb 0.00 in0.0 mm 0.00 in0.0 mm 0.05 in1.3 mm
08:00 PM 51.4°F10.8°C 43.4°F6.3°C 74% Calm Calm 0.7 mph1.1 kmh 30.17 in1021.7 mb 0.00 in0.0 mm 0.00 in0.0 mm 0.05 in1.3 mm
08:10 PM 50.9°F10.5°C 43.6°F6.4°C 76% Calm Calm 0.7 mph1.1 kmh 30.17 in1021.7 mb 0.00 in0.0 mm 0.00 in0.0 mm 0.05 in1.3 mm
08:20 PM 50.9°F10.5°C 44.0°F6.7°C 77% Calm Calm 1.6 mph2.6 kmh 30.17 in1021.7 mb 0.00 in0.0 mm 0.00 in0.0 mm 0.05 in1.3 mm
08:30 PM 50.4°F10.2°C 43.8°F6.6°C 78% Calm Calm 1.6 mph2.6 kmh 30.16 in1021.3 mb 0.00 in0.0 mm 0.00 in0.0 mm 0.05 in1.3 mm
08:40 PM 50.2°F10.1°C 43.9°F6.6°C 79% Calm Calm 0.7 mph1.1 kmh 30.17 in1021.7 mb 0.00 in0.0 mm 0.00 in0.0 mm 0.05 in1.3 mm
08:50 PM 50.0°F10.0°C 43.4°F6.3°C 78% Calm Calm 0.7 mph1.1 kmh 30.16 in1021.3 mb 0.00 in0.0 mm 0.00 in0.0 mm 0.05 in1.3 mm
09:00 PM 49.8°F9.9°C 43.2°F6.2°C 78% 0.7 mph NE1.1 kmh NE 1.6 mph2.6 kmh 30.16 in1021.3 mb 0.00 in0.0 mm 0.00 in0.0 mm 0.05 in1.3 mm
09:10 PM 50.0°F10.0°C 43.1°F6.2°C 77% 0.7 mph E1.1 kmh E 1.6 mph2.6 kmh 30.16 in1021.3 mb 0.00 in0.0 mm 0.00 in0.0 mm 0.05 in1.3 mm
09:20 PM 49.6°F9.8°C 42.4°F5.8°C 76% Calm Calm 1.6 mph2.6 kmh 30.16 in1021.3 mb 0.00 in0.0 mm 0.00 in0.0 mm 0.05 in1.3 mm
09:30 PM 49.6°F9.8°C 42.4°F5.8°C 76% 0.7 mph ENE1.1 kmh ENE 2.2 mph3.5 kmh 30.16 in1021.3 mb 0.00 in0.0 mm 0.00 in0.0 mm 0.05 in1.3 mm
09:40 PM 49.3°F9.6°C 42.0°F5.6°C 76% 0.7 mph E1.1 kmh E 2.2 mph3.5 kmh 30.16 in1021.3 mb 0.00 in0.0 mm 0.00 in0.0 mm 0.05 in1.3 mm
09:50 PM 49.1°F9.5°C 42.2°F5.7°C 77% Calm Calm 1.6 mph2.6 kmh 30.16 in1021.3 mb 0.00 in0.0 mm 0.00 in0.0 mm 0.05 in1.3 mm
10:00 PM 48.6°F9.2°C 42.0°F5.6°C 78% Calm Calm 0.7 mph1.1 kmh 30.16 in1021.3 mb 0.00 in0.0 mm 0.00 in0.0 mm 0.05 in1.3 mm
10:10 PM 48.4°F9.1°C 42.2°F5.7°C 79% Calm Calm 0.7 mph1.1 kmh 30.16 in1021.3 mb 0.00 in0.0 mm 0.00 in0.0 mm 0.05 in1.3 mm
10:20 PM 48.7°F9.3°C 42.5°F5.8°C 79% Calm Calm 1.6 mph2.6 kmh 30.16 in1021.3 mb 0.00 in0.0 mm 0.00 in0.0 mm 0.05 in1.3 mm
10:30 PM 48.7°F9.3°C 42.5°F5.8°C 79% 0.7 mph NE1.1 kmh NE 1.6 mph2.6 kmh 30.16 in1021.3 mb 0.00 in0.0 mm 0.00 in0.0 mm 0.05 in1.3 mm
10:40 PM 48.4°F9.1°C 41.8°F5.4°C 78% Calm Calm 1.6 mph2.6 kmh 30.16 in1021.3 mb 0.00 in0.0 mm 0.00 in0.0 mm 0.05 in1.3 mm
10:50 PM 47.8°F8.8°C 41.6°F5.3°C 79% Calm Calm 0.7 mph1.1 kmh 30.16 in1021.3 mb 0.00 in0.0 mm 0.00 in0.0 mm 0.05 in1.3 mm
11:00 PM 48.2°F9.0°C 42.3°F5.7°C 80% Calm Calm 0.7 mph1.1 kmh 30.16 in1021.3 mb 0.00 in0.0 mm 0.00 in0.0 mm 0.05 in1.3 mm
11:10 PM 48.0°F8.9°C 42.2°F5.7°C 80% Calm Calm 0.7 mph1.1 kmh 30.16 in1021.3 mb 0.00 in0.0 mm 0.00 in0.0 mm 0.05 in1.3 mm
11:20 PM 47.7°F8.7°C 41.8°F5.4°C 80% Calm Calm 1.6 mph2.6 kmh 30.15 in1021.0 mb 0.00 in0.0 mm 0.00 in0.0 mm 0.05 in1.3 mm
11:30 PM 47.7°F8.7°C 41.8°F5.4°C 80% Calm Calm 0.7 mph1.1 kmh 30.15 in1021.0 mb 0.00 in0.0 mm 0.00 in0.0 mm 0.05 in1.3 mm
11:40 PM 47.5°F8.6°C 41.6°F5.3°C 80% 0.7 mph NE1.1 kmh NE 1.6 mph2.6 kmh 30.15 in1021.0 mb 0.00 in0.0 mm 0.00 in0.0 mm 0.05 in1.3 mm
11:50 PM 47.5°F8.6°C 41.6°F5.3°C 80% 0.7 mph NE1.1 kmh NE 1.6 mph2.6 kmh 30.15 in1021.0 mb 0.00 in0.0 mm 0.00 in0.0 mm 0.05 in1.3 mm